Aeroporto :
LOGIN :

Iscrizione | Disclaimer

   EN    FR    IT 

 










Sommario :    VFR   VFR Marginale   IFR   IFR Intensivo   IFR Molto Intensivo
Visibilità : 
Base nubi : 
>= 8 km
>= 3000ft
5 / 8 km
1000 / 3000 ft
1500m / 5 km
500 / 1000 ft
800 / 1500m
200 / 500 ft
< 800m
< 200 ft
Simboli :   Temporali  Nebbia  Neve Forte  Precipitazioni Forti  Vento > 20 kt
SIGMETs :   Varie  Temporali  Ghiacco  Turbolenza  Onda orograficha  Ceneri Vulcaniche






- Altitudine del aeroporto : 164 ft
- Codice IATA : VBY


ESSV - Visby

ULTIMO METAR :
  • 220420Z AUTO 13013KT 9999 OVC010/// 05/03 Q1020

METARs OBSOLETI :
  • 220350Z AUTO 14013KT 9999 OVC011/// 05/03 Q1020
  • 220320Z AUTO 13013KT 9999 OVC010/// 05/04 Q1020
  • 220250Z AUTO 13015KT 9999 OVC009/// 06/04 Q1020
  • 220220Z AUTO 13017KT 9999 OVC011/// 06/04 Q1020
  • 220150Z AUTO 13016KT 9999 OVC011/// 06/04 Q1020

TAF TAF ESSV
Valido dal 22 a 04 ore il 22 a 12 ore UTC


220300Z 2204/2212 12015G25KT 9000 -RA BKN008
PROB40 2204/2212 4000 RA BKN012



MetMap, La meteo Aeronautica in un colpo d'occhio ! - Copyright ORBIFLY Dicembre 2007 - Disclaimer

ORBIFLY MET'MAP TEAM :

Programmazione e sviluppo : Alexandra Zaïnal
Concezione e sviluppo : Baudouin d'Aumeries
Co-Programmazione e sviluppo : Marc-Olivier Méhu
Supporto tecnico e logistico : Manuel Goepfert
Aiuto per la traduzione : Arnaldo La Scala

Contatto : metmap@orbifly.com




FONTI E CREDITI :

   NOAA